<?xml version="1.0" encoding="UTF-8" standalone="no" ?>
<gpx xmlns="http://www.topografix.com/GPX/1/1" xmlns:xsi="http://www.w3.org/2001/XMLSchema-instance" xsi:schemaLocation="http://www.topografix.com/GPX/1/1 http://www.topografix.com/GPX/1/1/gpx.xsd" version="1.1" creator="VisuGPX - https://www.visugpx.com">
  <metadata>
    <name>Marche 2022 - 5Km</name>
  </metadata>
  <trk>
    <name><![CDATA[14221998-Marche 2022 - 5Km]]></name>
    <trkseg>
      <trkpt lat="45.84818" lon="4.52955">
        <ele>425</ele>
        <time>2022-02-04T20:03:00Z</time>
      </trkpt>
      <trkpt lat="45.84815" lon="4.52971">
        <ele>423</ele>
        <time>2022-02-04T20:03:09Z</time>
      </trkpt>
      <trkpt lat="45.84789" lon="4.5296">
        <ele>424</ele>
        <time>2022-02-04T20:03:31Z</time>
      </trkpt>
      <trkpt lat="45.84751" lon="4.52937">
        <ele>427</ele>
        <time>2022-02-04T20:04:04Z</time>
      </trkpt>
      <trkpt lat="45.84734" lon="4.52943">
        <ele>425</ele>
        <time>2022-02-04T20:04:18Z</time>
      </trkpt>
      <trkpt lat="45.8468" lon="4.5295">
        <ele>423</ele>
        <time>2022-02-04T20:05:01Z</time>
      </trkpt>
      <trkpt lat="45.84691" lon="4.52996">
        <ele>417</ele>
        <time>2022-02-04T20:05:29Z</time>
      </trkpt>
      <trkpt lat="45.84714" lon="4.53036">
        <ele>415</ele>
        <time>2022-02-04T20:05:57Z</time>
      </trkpt>
      <trkpt lat="45.84724" lon="4.5307">
        <ele>412</ele>
        <time>2022-02-04T20:06:18Z</time>
      </trkpt>
      <trkpt lat="45.84724" lon="4.53133">
        <ele>409</ele>
        <time>2022-02-04T20:06:53Z</time>
      </trkpt>
      <trkpt lat="45.84727" lon="4.53171">
        <ele>406</ele>
        <time>2022-02-04T20:07:14Z</time>
      </trkpt>
      <trkpt lat="45.84728" lon="4.53226">
        <ele>403</ele>
        <time>2022-02-04T20:07:45Z</time>
      </trkpt>
      <trkpt lat="45.84728" lon="4.53238">
        <ele>402</ele>
        <time>2022-02-04T20:07:52Z</time>
      </trkpt>
      <trkpt lat="45.8472" lon="4.53272">
        <ele>399</ele>
        <time>2022-02-04T20:08:12Z</time>
      </trkpt>
      <trkpt lat="45.8471" lon="4.533">
        <ele>397</ele>
        <time>2022-02-04T20:08:29Z</time>
      </trkpt>
      <trkpt lat="45.84697" lon="4.5333">
        <ele>395</ele>
        <time>2022-02-04T20:08:49Z</time>
      </trkpt>
      <trkpt lat="45.84693" lon="4.53337">
        <ele>395</ele>
        <time>2022-02-04T20:08:54Z</time>
      </trkpt>
      <trkpt lat="45.84666" lon="4.53388">
        <ele>393</ele>
        <time>2022-02-04T20:09:30Z</time>
      </trkpt>
      <trkpt lat="45.84623" lon="4.5345">
        <ele>393</ele>
        <time>2022-02-04T20:10:19Z</time>
      </trkpt>
      <trkpt lat="45.84617" lon="4.53468">
        <ele>393</ele>
        <time>2022-02-04T20:10:30Z</time>
      </trkpt>
      <trkpt lat="45.84615" lon="4.53508">
        <ele>393</ele>
        <time>2022-02-04T20:10:52Z</time>
      </trkpt>
      <trkpt lat="45.84614" lon="4.53514">
        <ele>393</ele>
        <time>2022-02-04T20:10:56Z</time>
      </trkpt>
      <trkpt lat="45.84615" lon="4.53542">
        <ele>394</ele>
        <time>2022-02-04T20:11:11Z</time>
      </trkpt>
      <trkpt lat="45.84626" lon="4.53578">
        <ele>393</ele>
        <time>2022-02-04T20:11:33Z</time>
      </trkpt>
      <trkpt lat="45.84635" lon="4.53628">
        <ele>392</ele>
        <time>2022-02-04T20:12:02Z</time>
      </trkpt>
      <trkpt lat="45.84643" lon="4.53676">
        <ele>390</ele>
        <time>2022-02-04T20:12:30Z</time>
      </trkpt>
      <trkpt lat="45.84643" lon="4.537">
        <ele>389</ele>
        <time>2022-02-04T20:12:43Z</time>
      </trkpt>
      <trkpt lat="45.84627" lon="4.53798">
        <ele>390</ele>
        <time>2022-02-04T20:13:39Z</time>
      </trkpt>
      <trkpt lat="45.8461" lon="4.5391">
        <ele>390</ele>
        <time>2022-02-04T20:14:43Z</time>
      </trkpt>
      <trkpt lat="45.84594" lon="4.54009">
        <ele>385</ele>
        <time>2022-02-04T20:15:40Z</time>
      </trkpt>
      <trkpt lat="45.84594" lon="4.54084">
        <ele>377</ele>
        <time>2022-02-04T20:16:22Z</time>
      </trkpt>
      <trkpt lat="45.84599" lon="4.54156">
        <ele>373</ele>
        <time>2022-02-04T20:17:02Z</time>
      </trkpt>
      <trkpt lat="45.84611" lon="4.54223">
        <ele>368</ele>
        <time>2022-02-04T20:17:40Z</time>
      </trkpt>
      <trkpt lat="45.84615" lon="4.54251">
        <ele>366</ele>
        <time>2022-02-04T20:17:56Z</time>
      </trkpt>
      <trkpt lat="45.84631" lon="4.54308">
        <ele>363</ele>
        <time>2022-02-04T20:18:31Z</time>
      </trkpt>
      <trkpt lat="45.84648" lon="4.54375">
        <ele>362</ele>
        <time>2022-02-04T20:19:10Z</time>
      </trkpt>
      <trkpt lat="45.84671" lon="4.54452">
        <ele>361</ele>
        <time>2022-02-04T20:19:57Z</time>
      </trkpt>
      <trkpt lat="45.84687" lon="4.54546">
        <ele>360</ele>
        <time>2022-02-04T20:20:51Z</time>
      </trkpt>
      <trkpt lat="45.84673" lon="4.54631">
        <ele>361</ele>
        <time>2022-02-04T20:21:40Z</time>
      </trkpt>
      <trkpt lat="45.84657" lon="4.54717">
        <ele>363</ele>
        <time>2022-02-04T20:22:30Z</time>
      </trkpt>
      <trkpt lat="45.84648" lon="4.54805">
        <ele>364</ele>
        <time>2022-02-04T20:23:19Z</time>
      </trkpt>
      <trkpt lat="45.84635" lon="4.549">
        <ele>361</ele>
        <time>2022-02-04T20:24:13Z</time>
      </trkpt>
      <trkpt lat="45.84621" lon="4.5502">
        <ele>355</ele>
        <time>2022-02-04T20:25:21Z</time>
      </trkpt>
      <trkpt lat="45.84617" lon="4.55141">
        <ele>351</ele>
        <time>2022-02-04T20:26:29Z</time>
      </trkpt>
      <trkpt lat="45.84628" lon="4.55244">
        <ele>349</ele>
        <time>2022-02-04T20:27:27Z</time>
      </trkpt>
      <trkpt lat="45.8463" lon="4.55269">
        <ele>348</ele>
        <time>2022-02-04T20:27:41Z</time>
      </trkpt>
      <trkpt lat="45.84611" lon="4.55363">
        <ele>343</ele>
        <time>2022-02-04T20:28:35Z</time>
      </trkpt>
      <trkpt lat="45.84608" lon="4.55411">
        <ele>342</ele>
        <time>2022-02-04T20:29:02Z</time>
      </trkpt>
      <trkpt lat="45.84617" lon="4.55412">
        <ele>342</ele>
        <time>2022-02-04T20:29:09Z</time>
      </trkpt>
      <trkpt lat="45.84704" lon="4.55366">
        <ele>341</ele>
        <time>2022-02-04T20:30:24Z</time>
      </trkpt>
      <trkpt lat="45.8476" lon="4.55359">
        <ele>339</ele>
        <time>2022-02-04T20:31:09Z</time>
      </trkpt>
      <trkpt lat="45.84801" lon="4.55343">
        <ele>342</ele>
        <time>2022-02-04T20:31:43Z</time>
      </trkpt>
      <trkpt lat="45.84833" lon="4.5534">
        <ele>343</ele>
        <time>2022-02-04T20:32:08Z</time>
      </trkpt>
      <trkpt lat="45.849" lon="4.55338">
        <ele>346</ele>
        <time>2022-02-04T20:33:02Z</time>
      </trkpt>
      <trkpt lat="45.85038" lon="4.55317">
        <ele>341</ele>
        <time>2022-02-04T20:34:53Z</time>
      </trkpt>
      <trkpt lat="45.85065" lon="4.55307">
        <ele>339</ele>
        <time>2022-02-04T20:35:15Z</time>
      </trkpt>
      <trkpt lat="45.8508" lon="4.55298">
        <ele>338</ele>
        <time>2022-02-04T20:35:28Z</time>
      </trkpt>
      <trkpt lat="45.8509" lon="4.55284">
        <ele>337</ele>
        <time>2022-02-04T20:35:40Z</time>
      </trkpt>
      <trkpt lat="45.85114" lon="4.5524">
        <ele>336</ele>
        <time>2022-02-04T20:36:11Z</time>
      </trkpt>
      <trkpt lat="45.85137" lon="4.5519">
        <ele>334</ele>
        <time>2022-02-04T20:36:44Z</time>
      </trkpt>
      <trkpt lat="45.85158" lon="4.55099">
        <ele>336</ele>
        <time>2022-02-04T20:37:38Z</time>
      </trkpt>
      <trkpt lat="45.85171" lon="4.55071">
        <ele>335</ele>
        <time>2022-02-04T20:37:56Z</time>
      </trkpt>
      <trkpt lat="45.85198" lon="4.5498">
        <ele>335</ele>
        <time>2022-02-04T20:38:52Z</time>
      </trkpt>
      <trkpt lat="45.85217" lon="4.54929">
        <ele>333</ele>
        <time>2022-02-04T20:39:24Z</time>
      </trkpt>
      <trkpt lat="45.85228" lon="4.54907">
        <ele>332</ele>
        <time>2022-02-04T20:39:39Z</time>
      </trkpt>
      <trkpt lat="45.85325" lon="4.54773">
        <ele>329</ele>
        <time>2022-02-04T20:41:27Z</time>
      </trkpt>
      <trkpt lat="45.85358" lon="4.54717">
        <ele>330</ele>
        <time>2022-02-04T20:42:08Z</time>
      </trkpt>
      <trkpt lat="45.85353" lon="4.54699">
        <ele>331</ele>
        <time>2022-02-04T20:42:18Z</time>
      </trkpt>
      <trkpt lat="45.85309" lon="4.54602">
        <ele>333</ele>
        <time>2022-02-04T20:43:23Z</time>
      </trkpt>
      <trkpt lat="45.85265" lon="4.54498">
        <ele>337</ele>
        <time>2022-02-04T20:44:31Z</time>
      </trkpt>
      <trkpt lat="45.85224" lon="4.54383">
        <ele>343</ele>
        <time>2022-02-04T20:45:43Z</time>
      </trkpt>
      <trkpt lat="45.85181" lon="4.54251">
        <ele>346</ele>
        <time>2022-02-04T20:47:04Z</time>
      </trkpt>
      <trkpt lat="45.85123" lon="4.54054">
        <ele>354</ele>
        <time>2022-02-04T20:49:03Z</time>
      </trkpt>
      <trkpt lat="45.85102" lon="4.53986">
        <ele>355</ele>
        <time>2022-02-04T20:49:45Z</time>
      </trkpt>
      <trkpt lat="45.85061" lon="4.53906">
        <ele>360</ele>
        <time>2022-02-04T20:50:40Z</time>
      </trkpt>
      <trkpt lat="45.85012" lon="4.53846">
        <ele>365</ele>
        <time>2022-02-04T20:51:32Z</time>
      </trkpt>
      <trkpt lat="45.85005" lon="4.53833">
        <ele>366</ele>
        <time>2022-02-04T20:51:41Z</time>
      </trkpt>
      <trkpt lat="45.84984" lon="4.53766">
        <ele>370</ele>
        <time>2022-02-04T20:52:22Z</time>
      </trkpt>
      <trkpt lat="45.84974" lon="4.53724">
        <ele>371</ele>
        <time>2022-02-04T20:52:47Z</time>
      </trkpt>
      <trkpt lat="45.84951" lon="4.53635">
        <ele>373</ele>
        <time>2022-02-04T20:53:40Z</time>
      </trkpt>
      <trkpt lat="45.8491" lon="4.5355">
        <ele>374</ele>
        <time>2022-02-04T20:54:37Z</time>
      </trkpt>
      <trkpt lat="45.84822" lon="4.534">
        <ele>384</ele>
        <time>2022-02-04T20:56:27Z</time>
      </trkpt>
      <trkpt lat="45.84807" lon="4.53376">
        <ele>387</ele>
        <time>2022-02-04T20:56:45Z</time>
      </trkpt>
      <trkpt lat="45.84789" lon="4.53308">
        <ele>392</ele>
        <time>2022-02-04T20:57:25Z</time>
      </trkpt>
      <trkpt lat="45.84783" lon="4.53294">
        <ele>394</ele>
        <time>2022-02-04T20:57:34Z</time>
      </trkpt>
      <trkpt lat="45.8473" lon="4.53227">
        <ele>403</ele>
        <time>2022-02-04T20:58:31Z</time>
      </trkpt>
      <trkpt lat="45.84724" lon="4.5316">
        <ele>407</ele>
        <time>2022-02-04T20:59:09Z</time>
      </trkpt>
      <trkpt lat="45.84727" lon="4.53147">
        <ele>408</ele>
        <time>2022-02-04T20:59:16Z</time>
      </trkpt>
      <trkpt lat="45.84725" lon="4.53068">
        <ele>413</ele>
        <time>2022-02-04T21:00:00Z</time>
      </trkpt>
      <trkpt lat="45.84711" lon="4.53029">
        <ele>415</ele>
        <time>2022-02-04T21:00:25Z</time>
      </trkpt>
      <trkpt lat="45.84693" lon="4.52996">
        <ele>417</ele>
        <time>2022-02-04T21:00:48Z</time>
      </trkpt>
      <trkpt lat="45.84679" lon="4.52948">
        <ele>423</ele>
        <time>2022-02-04T21:01:17Z</time>
      </trkpt>
      <trkpt lat="45.84737" lon="4.52944">
        <ele>425</ele>
        <time>2022-02-04T21:02:04Z</time>
      </trkpt>
      <trkpt lat="45.84791" lon="4.52982">
        <ele>421</ele>
        <time>2022-02-04T21:02:52Z</time>
      </trkpt>
      <trkpt lat="45.84804" lon="4.52991">
        <ele>420</ele>
        <time>2022-02-04T21:03:04Z</time>
      </trkpt>
      <trkpt lat="45.84809" lon="4.52991">
        <ele>420</ele>
        <time>2022-02-04T21:03:08Z</time>
      </trkpt>
      <trkpt lat="45.84813" lon="4.52985">
        <ele>421</ele>
        <time>2022-02-04T21:03:12Z</time>
      </trkpt>
      <trkpt lat="45.8482" lon="4.52959">
        <ele>424</ele>
        <time>2022-02-04T21:03:28Z</time>
      </trkpt>
    </trkseg>
  </trk>
</gpx>